createdAt,value
2017-01-31T00:00:10.289Z,932.96
2017-01-31T00:00:38.515Z,932.94
2017-01-31T00:01:06.765Z,932.98
2017-01-31T00:01:35.002Z,932.97
2017-01-31T00:02:03.059Z,933.01
2017-01-31T00:02:31.384Z,932.99
2017-01-31T00:02:59.477Z,932.99
2017-01-31T00:03:27.568Z,932.98
2017-01-31T00:03:55.799Z,932.94
2017-01-31T00:04:24.114Z,932.97
2017-01-31T00:04:52.327Z,932.98
2017-01-31T00:05:20.388Z,933.01
2017-01-31T00:05:48.624Z,932.98
2017-01-31T00:06:16.900Z,932.98
2017-01-31T00:06:45.012Z,932.99
2017-01-31T00:07:13.099Z,933
2017-01-31T00:07:41.209Z,933.02
2017-01-31T00:08:09.328Z,932.98
2017-01-31T00:08:37.432Z,933.02
2017-01-31T00:09:05.678Z,933.01
2017-01-31T00:09:33.797Z,933
2017-01-31T00:10:02.054Z,933.01
2017-01-31T00:10:30.166Z,933.04
2017-01-31T00:10:58.346Z,933.06
2017-01-31T00:11:26.577Z,933.07
2017-01-31T00:11:54.878Z,933.07
2017-01-31T00:12:22.999Z,933.05
2017-01-31T00:12:51.284Z,933.08
2017-01-31T00:13:19.390Z,933.1
2017-01-31T00:13:47.656Z,933.07
2017-01-31T00:14:15.879Z,933.13
2017-01-31T00:14:44.067Z,933.12
2017-01-31T00:15:12.279Z,933.13
2017-01-31T00:15:40.641Z,933.12
2017-01-31T00:16:08.769Z,933.13
2017-01-31T00:16:36.804Z,933.12
2017-01-31T00:17:05.003Z,933.13
2017-01-31T00:17:33.159Z,933.15
2017-01-31T00:18:01.498Z,933.17
2017-01-31T00:18:29.710Z,933.19
2017-01-31T00:18:57.727Z,933.16
2017-01-31T00:19:25.735Z,933.16
2017-01-31T00:19:53.940Z,933.18
2017-01-31T00:20:22.029Z,933.23
2017-01-31T00:20:50.332Z,933.21
2017-01-31T00:21:18.521Z,933.19
2017-01-31T00:21:46.824Z,933.18
2017-01-31T00:22:14.952Z,933.21
2017-01-31T00:22:43.139Z,933.25
2017-01-31T00:23:11.239Z,933.25
2017-01-31T00:23:39.459Z,933.2
2017-01-31T00:24:07.507Z,933.24
2017-01-31T00:24:35.598Z,933.22
2017-01-31T00:25:03.893Z,933.24
2017-01-31T00:25:32.027Z,933.24
2017-01-31T00:26:00.274Z,933.26
2017-01-31T00:26:28.467Z,933.27
2017-01-31T00:26:56.720Z,933.28
2017-01-31T00:27:25.047Z,933.26
2017-01-31T00:27:53.320Z,933.25
2017-01-31T00:28:21.430Z,933.26
2017-01-31T00:28:49.611Z,933.27
2017-01-31T00:29:17.911Z,933.28
2017-01-31T00:29:46.107Z,933.3
2017-01-31T00:30:14.144Z,933.3
2017-01-31T00:30:42.451Z,933.31
2017-01-31T00:31:10.654Z,933.3
2017-01-31T00:31:38.741Z,933.29
2017-01-31T00:32:06.879Z,933.3
2017-01-31T00:32:34.880Z,933.29
2017-01-31T00:33:03.114Z,933.31
2017-01-31T00:33:31.301Z,933.32
2017-01-31T00:33:59.544Z,933.34
2017-01-31T00:34:27.674Z,933.36
2017-01-31T00:34:55.903Z,933.37
2017-01-31T00:35:24.006Z,933.33
2017-01-31T00:35:52.078Z,933.34
2017-01-31T00:36:20.128Z,933.38
2017-01-31T00:36:48.399Z,933.34
2017-01-31T00:37:16.627Z,933.38
2017-01-31T00:37:44.881Z,933.39
2017-01-31T00:38:13.118Z,933.37
2017-01-31T00:38:41.219Z,933.39
2017-01-31T00:39:09.427Z,933.38
2017-01-31T00:39:37.574Z,933.39
2017-01-31T00:40:05.758Z,933.36
2017-01-31T00:40:33.881Z,933.38
2017-01-31T00:41:02.187Z,933.43
2017-01-31T00:41:30.303Z,933.39
2017-01-31T00:41:58.486Z,933.39
2017-01-31T00:42:26.606Z,933.4
2017-01-31T00:42:54.620Z,933.36
2017-01-31T00:43:22.910Z,933.4
2017-01-31T00:43:51.036Z,933.37
2017-01-31T00:44:19.156Z,933.39
2017-01-31T00:44:47.290Z,933.35
2017-01-31T00:45:15.592Z,933.39
2017-01-31T00:45:43.804Z,933.35
2017-01-31T00:46:11.851Z,933.37
2017-01-31T00:46:39.865Z,933.36
2017-01-31T00:47:08.139Z,933.35
2017-01-31T00:47:36.357Z,933.35
2017-01-31T00:48:04.490Z,933.36
2017-01-31T00:48:32.576Z,933.35
2017-01-31T00:49:00.685Z,933.36
2017-01-31T00:49:28.869Z,933.35
2017-01-31T00:49:57.049Z,933.37
2017-01-31T00:50:25.197Z,933.35
2017-01-31T00:50:53.522Z,933.36
2017-01-31T00:51:21.689Z,933.4
2017-01-31T00:51:49.901Z,933.37
2017-01-31T00:52:18.014Z,933.4
2017-01-31T00:52:46.176Z,933.39
2017-01-31T00:53:14.389Z,933.42
2017-01-31T00:53:42.533Z,933.4
2017-01-31T00:54:10.759Z,933.43
2017-01-31T00:54:39.013Z,933.41
2017-01-31T00:55:07.040Z,933.44
2017-01-31T00:55:35.148Z,933.43
2017-01-31T00:56:03.742Z,933.42
2017-01-31T00:56:32.012Z,933.41
2017-01-31T00:57:00.062Z,933.39
2017-01-31T00:57:28.104Z,933.39
2017-01-31T00:57:56.119Z,933.38
2017-01-31T00:58:24.228Z,933.37
2017-01-31T00:58:52.425Z,933.33
2017-01-31T00:59:20.659Z,933.34
2017-01-31T00:59:48.694Z,933.34
2017-01-31T01:00:16.914Z,933.34
2017-01-31T01:00:45.107Z,933.32
2017-01-31T01:01:13.744Z,933.31
2017-01-31T01:01:41.966Z,933.34
2017-01-31T01:02:10.142Z,933.34
2017-01-31T01:02:38.453Z,933.35
2017-01-31T01:03:06.589Z,933.34
2017-01-31T01:03:34.889Z,933.38
2017-01-31T01:04:02.837Z,933.31
2017-01-31T01:04:30.991Z,933.36
2017-01-31T01:04:59.015Z,933.37
2017-01-31T01:05:27.114Z,933.39
2017-01-31T01:05:55.221Z,933.32
2017-01-31T01:06:23.304Z,933.35
2017-01-31T01:06:51.463Z,933.34
2017-01-31T01:07:19.643Z,933.35
2017-01-31T01:07:47.583Z,933.38
2017-01-31T01:08:15.785Z,933.36
2017-01-31T01:08:43.831Z,933.3
2017-01-31T01:09:11.835Z,933.32
2017-01-31T01:09:40.116Z,933.35
2017-01-31T01:10:08.334Z,933.37
2017-01-31T01:10:36.722Z,933.37
2017-01-31T01:11:05.065Z,933.33
2017-01-31T01:11:33.318Z,933.36
2017-01-31T01:12:01.362Z,933.34
2017-01-31T01:12:29.357Z,933.33
2017-01-31T01:12:57.607Z,933.34
2017-01-31T01:13:25.819Z,933.31
2017-01-31T01:13:53.974Z,933.35
2017-01-31T01:14:22.316Z,933.37
2017-01-31T01:14:50.604Z,933.34
2017-01-31T01:15:18.805Z,933.31
2017-01-31T01:15:47.031Z,933.35
2017-01-31T01:16:15.363Z,933.32
2017-01-31T01:16:43.562Z,933.31
2017-01-31T01:17:11.686Z,933.3
2017-01-31T01:17:39.891Z,933.31
2017-01-31T01:18:07.841Z,933.26
2017-01-31T01:18:36.039Z,933.32
2017-01-31T01:19:04.355Z,933.29
2017-01-31T01:19:32.658Z,933.25
2017-01-31T01:20:01.177Z,933.29
2017-01-31T01:20:29.428Z,933.27
2017-01-31T01:20:57.419Z,933.29
2017-01-31T01:21:25.888Z,933.3
2017-01-31T01:21:54.126Z,933.29
2017-01-31T01:22:22.445Z,933.29
2017-01-31T01:22:50.713Z,933.24
2017-01-31T01:23:18.891Z,933.26
2017-01-31T01:23:47.153Z,933.28
2017-01-31T01:24:15.398Z,933.25
2017-01-31T01:24:43.577Z,933.21
2017-01-31T01:25:11.762Z,933.19
2017-01-31T01:25:39.723Z,933.15
2017-01-31T01:26:07.948Z,933.19
2017-01-31T01:26:36.252Z,933.22
2017-01-31T01:27:04.541Z,933.21
2017-01-31T01:27:32.801Z,933.22
2017-01-31T01:28:01.059Z,933.22
2017-01-31T01:28:29.169Z,933.22
2017-01-31T01:28:57.487Z,933.24
2017-01-31T01:29:25.547Z,933.19
2017-01-31T01:29:53.681Z,933.21
2017-01-31T01:30:21.826Z,933.23
2017-01-31T01:30:49.945Z,933.23
2017-01-31T01:31:17.973Z,933.25
2017-01-31T01:31:46.164Z,933.22
2017-01-31T01:32:14.464Z,933.17
2017-01-31T01:32:42.601Z,933.17
2017-01-31T01:33:10.610Z,933.17
2017-01-31T01:33:38.912Z,933.18
2017-01-31T01:34:07.007Z,933.18
2017-01-31T01:34:35.239Z,933.17
2017-01-31T01:35:03.350Z,933.16
2017-01-31T01:35:31.586Z,933.15
2017-01-31T01:35:59.991Z,933.18
2017-01-31T01:36:28.297Z,933.17
2017-01-31T01:36:56.396Z,933.16
2017-01-31T01:37:24.501Z,933.16
2017-01-31T01:37:52.579Z,933.18
2017-01-31T01:38:20.801Z,933.2
2017-01-31T01:38:49.000Z,933.17
2017-01-31T01:39:17.198Z,933.17
2017-01-31T01:39:45.331Z,933.18
2017-01-31T01:40:13.449Z,933.17
2017-01-31T01:40:41.564Z,933.18
2017-01-31T01:41:09.676Z,933.18
2017-01-31T01:41:38.005Z,933.2
2017-01-31T01:42:06.097Z,933.19
2017-01-31T01:42:34.316Z,933.22
2017-01-31T01:43:02.314Z,933.19
2017-01-31T01:43:30.464Z,933.23
2017-01-31T01:43:58.501Z,933.25
2017-01-31T01:44:26.696Z,933.24
2017-01-31T01:44:55.026Z,933.25
2017-01-31T01:45:23.346Z,933.26
2017-01-31T01:45:51.461Z,933.26
2017-01-31T01:46:19.738Z,933.25
2017-01-31T01:46:48.356Z,933.25
2017-01-31T01:47:16.534Z,933.24
2017-01-31T01:47:44.652Z,933.24
2017-01-31T01:48:12.898Z,933.2
2017-01-31T01:48:41.032Z,933.22
2017-01-31T01:49:09.291Z,933.21
2017-01-31T01:49:37.508Z,933.19
2017-01-31T01:50:05.699Z,933.22
2017-01-31T01:50:33.880Z,933.2
2017-01-31T01:51:02.186Z,933.22
2017-01-31T01:51:30.351Z,933.25
2017-01-31T01:51:58.648Z,933.24
2017-01-31T01:52:26.819Z,933.25
2017-01-31T01:52:54.911Z,933.28
2017-01-31T01:53:22.976Z,933.29
2017-01-31T01:53:51.148Z,933.24
2017-01-31T01:54:19.405Z,933.28
2017-01-31T01:54:47.764Z,933.26
2017-01-31T01:55:15.968Z,933.27
2017-01-31T01:55:44.090Z,933.29
2017-01-31T01:56:12.360Z,933.3
2017-01-31T01:56:40.782Z,933.28
2017-01-31T01:57:08.866Z,933.27
2017-01-31T01:57:37.122Z,933.29
2017-01-31T01:58:05.274Z,933.31
2017-01-31T01:58:33.372Z,933.28
2017-01-31T01:59:01.626Z,933.3
2017-01-31T01:59:29.769Z,933.31
2017-01-31T01:59:57.994Z,933.31
2017-01-31T02:00:26.316Z,933.31
2017-01-31T02:00:54.462Z,933.31
2017-01-31T02:01:22.776Z,933.29
2017-01-31T02:01:51.089Z,933.29
2017-01-31T02:02:19.268Z,933.33
2017-01-31T02:02:47.509Z,933.34
2017-01-31T02:03:15.632Z,933.34
2017-01-31T02:03:43.827Z,933.32
2017-01-31T02:04:12.074Z,933.35
2017-01-31T02:04:39.942Z,933.37
2017-01-31T02:05:08.270Z,933.4
2017-01-31T02:05:36.608Z,933.41
2017-01-31T02:06:04.828Z,933.38
2017-01-31T02:06:33.039Z,933.37
2017-01-31T02:07:01.409Z,933.39
2017-01-31T02:07:29.746Z,933.38
2017-01-31T02:07:57.998Z,933.38
2017-01-31T02:08:26.189Z,933.38
2017-01-31T02:08:54.474Z,933.38
2017-01-31T02:09:22.696Z,933.37
2017-01-31T02:09:50.906Z,933.37
2017-01-31T02:10:18.867Z,933.36
2017-01-31T02:10:47.042Z,933.34
2017-01-31T02:11:15.174Z,933.36
2017-01-31T02:11:43.361Z,933.36
2017-01-31T02:12:11.853Z,933.35
2017-01-31T02:12:40.122Z,933.36
2017-01-31T02:13:08.347Z,933.34
2017-01-31T02:13:36.503Z,933.35
2017-01-31T02:14:04.784Z,933.33
2017-01-31T02:14:32.994Z,933.34
2017-01-31T02:15:01.125Z,933.33
2017-01-31T02:15:29.293Z,933.33
2017-01-31T02:15:57.467Z,933.32
2017-01-31T02:16:25.699Z,933.31
2017-01-31T02:16:53.800Z,933.29
2017-01-31T02:17:21.971Z,933.29
2017-01-31T02:17:50.020Z,933.3
2017-01-31T02:18:18.134Z,933.28
2017-01-31T02:18:46.350Z,933.28
2017-01-31T02:19:14.815Z,933.26
2017-01-31T02:19:43.040Z,933.25
2017-01-31T02:20:11.165Z,933.24
2017-01-31T02:20:39.206Z,933.19
2017-01-31T02:21:07.342Z,933.21
2017-01-31T02:21:35.194Z,933.2
2017-01-31T02:22:03.262Z,933.21
2017-01-31T02:22:31.620Z,933.19
2017-01-31T02:22:59.849Z,933.21
2017-01-31T02:23:28.270Z,933.21
2017-01-31T02:23:56.552Z,933.22
2017-01-31T02:24:24.702Z,933.18
2017-01-31T02:24:52.972Z,933.23
2017-01-31T02:25:21.208Z,933.23
2017-01-31T02:25:49.487Z,933.21
2017-01-31T02:26:17.576Z,933.19
2017-01-31T02:26:45.654Z,933.18
2017-01-31T02:27:13.905Z,933.2
2017-01-31T02:27:42.263Z,933.18
2017-01-31T02:28:10.376Z,933.23
2017-01-31T02:28:38.506Z,933.21
2017-01-31T02:29:06.777Z,933.21
2017-01-31T02:29:35.069Z,933.22
2017-01-31T02:30:03.138Z,933.21
2017-01-31T02:30:31.373Z,933.24
2017-01-31T02:30:59.506Z,933.25
2017-01-31T02:31:27.581Z,933.26
2017-01-31T02:31:55.851Z,933.24
2017-01-31T02:32:24.133Z,933.27
2017-01-31T02:32:52.355Z,933.26
2017-01-31T02:33:20.602Z,933.27
2017-01-31T02:33:48.847Z,933.3
2017-01-31T02:34:17.077Z,933.27
2017-01-31T02:34:45.138Z,933.3
2017-01-31T02:35:13.387Z,933.27
2017-01-31T02:35:41.468Z,933.28
2017-01-31T02:36:09.812Z,933.29
2017-01-31T02:36:38.058Z,933.3
2017-01-31T02:37:06.314Z,933.3
2017-01-31T02:37:34.322Z,933.27
2017-01-31T02:38:02.387Z,933.31
2017-01-31T02:38:30.613Z,933.29
2017-01-31T02:38:58.894Z,933.29
2017-01-31T02:39:26.990Z,933.31
2017-01-31T02:39:55.186Z,933.3
2017-01-31T02:40:23.559Z,933.29
2017-01-31T02:40:51.911Z,933.3
2017-01-31T02:41:20.094Z,933.3
2017-01-31T02:41:48.237Z,933.29
2017-01-31T02:42:16.567Z,933.32
2017-01-31T02:42:44.863Z,933.31
2017-01-31T02:43:13.068Z,933.27
2017-01-31T02:43:41.066Z,933.26
2017-01-31T02:44:09.302Z,933.28
2017-01-31T02:44:37.506Z,933.3
2017-01-31T02:45:05.644Z,933.3
2017-01-31T02:45:33.817Z,933.29
2017-01-31T02:46:01.978Z,933.32
2017-01-31T02:46:30.042Z,933.29
2017-01-31T02:46:58.359Z,933.33
2017-01-31T02:47:26.817Z,933.29
2017-01-31T02:47:55.046Z,933.32
2017-01-31T02:48:23.294Z,933.35
2017-01-31T02:48:51.352Z,933.34
2017-01-31T02:49:19.675Z,933.34
2017-01-31T02:49:47.857Z,933.38
2017-01-31T02:50:15.960Z,933.31
2017-01-31T02:50:44.148Z,933.33
2017-01-31T02:51:12.375Z,933.31
2017-01-31T02:51:40.444Z,933.3
2017-01-31T02:52:08.800Z,933.31
2017-01-31T02:52:37.364Z,933.31
2017-01-31T02:53:05.633Z,933.33
2017-01-31T02:53:33.914Z,933.3
2017-01-31T02:54:02.223Z,933.27
2017-01-31T02:54:30.462Z,933.29
2017-01-31T02:54:58.680Z,933.29
2017-01-31T02:55:26.943Z,933.3
2017-01-31T02:55:54.993Z,933.27
2017-01-31T02:56:22.974Z,933.23
2017-01-31T02:56:51.145Z,933.27
2017-01-31T02:57:19.288Z,933.26
2017-01-31T02:57:47.709Z,933.26
2017-01-31T02:58:15.924Z,933.29
2017-01-31T02:58:44.251Z,933.28
2017-01-31T02:59:12.505Z,933.31
2017-01-31T02:59:40.751Z,933.31
2017-01-31T03:00:08.943Z,933.31
2017-01-31T03:00:36.824Z,933.29
2017-01-31T03:01:05.079Z,933.29
2017-01-31T03:01:33.234Z,933.29
2017-01-31T03:02:01.451Z,933.25
2017-01-31T03:02:29.846Z,933.29
2017-01-31T03:02:57.986Z,933.27
2017-01-31T03:03:26.166Z,933.26
2017-01-31T03:03:54.372Z,933.26
2017-01-31T03:04:22.536Z,933.2
2017-01-31T03:04:50.704Z,933.24
2017-01-31T03:05:19.023Z,933.25
2017-01-31T03:05:47.194Z,933.21
2017-01-31T03:06:15.332Z,933.21
2017-01-31T03:06:43.527Z,933.24
2017-01-31T03:07:11.573Z,933.21
2017-01-31T03:07:39.999Z,933.17
2017-01-31T03:08:08.193Z,933.21
2017-01-31T03:08:36.173Z,933.2
2017-01-31T03:09:04.414Z,933.23
2017-01-31T03:09:32.631Z,933.19
2017-01-31T03:10:00.645Z,933.2
2017-01-31T03:10:28.882Z,933.17
2017-01-31T03:10:57.272Z,933.19
2017-01-31T03:11:25.542Z,933.17
2017-01-31T03:11:53.875Z,933.19
2017-01-31T03:12:22.016Z,933.15
2017-01-31T03:12:50.468Z,933.15
2017-01-31T03:14:10.289Z,933.12
2017-01-31T03:14:38.572Z,933.08
2017-01-31T03:15:26.040Z,933.08
2017-01-31T03:15:54.110Z,933.09
2017-01-31T03:16:22.119Z,933.07
2017-01-31T03:16:50.187Z,933.07
2017-01-31T03:17:18.295Z,933.08
2017-01-31T03:17:46.785Z,933.09
2017-01-31T03:18:14.937Z,933.1
2017-01-31T03:18:43.136Z,933.07
2017-01-31T03:19:11.216Z,933.14
2017-01-31T03:19:39.518Z,933.09
2017-01-31T03:20:07.725Z,933.07
2017-01-31T03:20:35.733Z,933.09
2017-01-31T03:21:03.745Z,933.08
2017-01-31T03:21:31.698Z,933.04
2017-01-31T03:21:59.869Z,933.03
2017-01-31T03:22:27.871Z,932.99
2017-01-31T03:22:56.014Z,933.02
2017-01-31T03:23:24.193Z,933.01
2017-01-31T03:23:52.306Z,932.97
2017-01-31T03:24:20.242Z,932.98
2017-01-31T03:24:48.439Z,932.97
2017-01-31T03:25:16.489Z,932.96
2017-01-31T03:25:44.666Z,933
2017-01-31T03:26:12.921Z,932.96
2017-01-31T03:26:41.154Z,932.95
2017-01-31T03:27:09.386Z,932.95
2017-01-31T03:27:37.605Z,932.96
2017-01-31T03:28:06.007Z,932.91
2017-01-31T03:28:33.990Z,932.91
2017-01-31T03:29:02.168Z,932.87
2017-01-31T03:29:30.287Z,932.88
2017-01-31T03:29:58.456Z,932.84
2017-01-31T03:30:26.470Z,932.86
2017-01-31T03:30:54.451Z,932.87
2017-01-31T03:31:22.476Z,932.82
2017-01-31T03:31:50.696Z,932.82
2017-01-31T03:32:18.912Z,932.8
2017-01-31T03:32:46.987Z,932.82
2017-01-31T03:33:15.230Z,932.79
2017-01-31T03:33:43.283Z,932.82
2017-01-31T03:34:11.420Z,932.82
2017-01-31T03:34:39.526Z,932.84
2017-01-31T03:35:07.730Z,932.82
2017-01-31T03:35:35.793Z,932.8
2017-01-31T03:36:03.867Z,932.78
2017-01-31T03:36:31.990Z,932.8
2017-01-31T03:37:00.012Z,932.81
2017-01-31T03:37:28.219Z,932.74
2017-01-31T03:37:56.372Z,932.76
2017-01-31T03:38:24.341Z,932.77
2017-01-31T03:38:52.469Z,932.8
2017-01-31T03:39:20.556Z,932.81
2017-01-31T03:39:48.575Z,932.8
2017-01-31T03:40:16.797Z,932.78
2017-01-31T03:40:44.907Z,932.82
2017-01-31T03:41:13.064Z,932.8
2017-01-31T03:41:41.199Z,932.79
2017-01-31T03:42:09.118Z,932.83
2017-01-31T03:42:37.212Z,932.8
2017-01-31T03:43:05.319Z,932.81
2017-01-31T03:43:33.324Z,932.8
2017-01-31T03:44:01.411Z,932.8
2017-01-31T03:44:29.573Z,932.78
2017-01-31T03:44:57.495Z,932.82
2017-01-31T03:45:25.520Z,932.79
2017-01-31T03:45:53.580Z,932.78
2017-01-31T03:46:21.497Z,932.79
2017-01-31T03:46:49.592Z,932.77
2017-01-31T03:47:17.641Z,932.76
2017-01-31T03:47:45.760Z,932.79
2017-01-31T03:48:14.074Z,932.81
2017-01-31T03:48:42.139Z,932.79
2017-01-31T03:49:10.066Z,932.81
2017-01-31T03:49:38.198Z,932.79
2017-01-31T03:50:06.424Z,932.8
2017-01-31T03:50:34.311Z,932.84
2017-01-31T03:51:02.579Z,932.8
2017-01-31T03:51:30.578Z,932.82
2017-01-31T03:51:58.629Z,932.82
2017-01-31T03:52:26.717Z,932.85
2017-01-31T03:52:54.779Z,932.8
2017-01-31T03:53:23.026Z,932.79
2017-01-31T03:53:50.971Z,932.77
2017-01-31T03:54:19.069Z,932.74
2017-01-31T03:54:47.218Z,932.72
2017-01-31T03:55:15.163Z,932.72
2017-01-31T03:55:43.268Z,932.74
2017-01-31T03:56:11.369Z,932.72
2017-01-31T03:56:39.400Z,932.67
2017-01-31T03:57:07.392Z,932.68
2017-01-31T03:57:35.625Z,932.71
2017-01-31T03:58:03.578Z,932.67
2017-01-31T03:58:32.000Z,932.64
2017-01-31T03:59:00.117Z,932.64
2017-01-31T03:59:27.995Z,932.64
2017-01-31T03:59:55.848Z,932.61
2017-01-31T04:00:23.878Z,932.58
2017-01-31T04:00:51.949Z,932.6
2017-01-31T04:01:20.119Z,932.59
2017-01-31T04:01:48.210Z,932.55
2017-01-31T04:02:16.317Z,932.53
2017-01-31T04:02:44.337Z,932.55
2017-01-31T04:03:12.625Z,932.52
2017-01-31T04:03:40.679Z,932.47
2017-01-31T04:04:08.757Z,932.47
2017-01-31T04:04:36.784Z,932.5
2017-01-31T04:05:05.025Z,932.45
2017-01-31T04:05:33.229Z,932.46
2017-01-31T04:06:01.335Z,932.45
2017-01-31T04:06:29.343Z,932.43
2017-01-31T04:06:57.346Z,932.4
2017-01-31T04:07:25.417Z,932.41
2017-01-31T04:07:53.595Z,932.38
2017-01-31T04:08:21.894Z,932.42
2017-01-31T04:08:50.063Z,932.43
2017-01-31T04:09:18.231Z,932.4
2017-01-31T04:09:46.274Z,932.4
2017-01-31T04:10:14.223Z,932.45
2017-01-31T04:10:42.343Z,932.42
2017-01-31T04:11:10.263Z,932.45
2017-01-31T04:11:38.254Z,932.46
2017-01-31T04:12:06.390Z,932.49
2017-01-31T04:12:34.604Z,932.45
2017-01-31T04:13:02.834Z,932.48
2017-01-31T04:13:30.896Z,932.46
2017-01-31T04:13:58.843Z,932.49
2017-01-31T04:14:26.913Z,932.49
2017-01-31T04:14:55.155Z,932.48
2017-01-31T04:15:23.265Z,932.46
2017-01-31T04:15:51.402Z,932.48
2017-01-31T04:16:19.569Z,932.49
2017-01-31T04:16:47.776Z,932.5
2017-01-31T04:17:15.948Z,932.49
2017-01-31T04:17:44.178Z,932.5
2017-01-31T04:18:12.301Z,932.53
2017-01-31T04:18:40.594Z,932.57
2017-01-31T04:19:08.711Z,932.53
2017-01-31T04:19:36.753Z,932.61
2017-01-31T04:20:04.748Z,932.57
2017-01-31T04:20:32.937Z,932.58
2017-01-31T04:21:01.166Z,932.63
2017-01-31T04:21:29.261Z,932.59
2017-01-31T04:21:57.374Z,932.58
2017-01-31T04:22:25.495Z,932.61
2017-01-31T04:22:53.428Z,932.61
2017-01-31T04:23:21.362Z,932.55
2017-01-31T04:23:49.645Z,932.57
2017-01-31T04:24:17.807Z,932.54
2017-01-31T04:24:45.932Z,932.52
2017-01-31T04:25:13.799Z,932.5
2017-01-31T04:25:42.003Z,932.49
2017-01-31T04:26:10.099Z,932.52
2017-01-31T04:26:38.123Z,932.51
2017-01-31T04:27:06.286Z,932.5
2017-01-31T04:27:34.408Z,932.49
2017-01-31T04:28:02.392Z,932.51
2017-01-31T04:28:30.866Z,932.45
2017-01-31T04:28:58.796Z,932.46
2017-01-31T04:29:26.833Z,932.44
2017-01-31T04:29:54.768Z,932.41
2017-01-31T04:30:22.938Z,932.48
2017-01-31T04:30:51.064Z,932.41
2017-01-31T04:31:18.874Z,932.42
2017-01-31T04:31:47.063Z,932.41
2017-01-31T04:32:15.304Z,932.39
2017-01-31T04:32:43.542Z,932.36
2017-01-31T04:33:11.779Z,932.36
2017-01-31T04:33:39.858Z,932.37
2017-01-31T04:34:07.954Z,932.38
2017-01-31T04:34:35.956Z,932.38
2017-01-31T04:35:04.207Z,932.34
2017-01-31T04:35:32.215Z,932.32
2017-01-31T04:36:00.381Z,932.36
2017-01-31T04:36:28.344Z,932.33
2017-01-31T04:36:56.580Z,932.37
2017-01-31T04:37:24.817Z,932.29
2017-01-31T04:37:52.703Z,932.3
2017-01-31T04:38:20.837Z,932.23
2017-01-31T04:38:49.086Z,932.24
2017-01-31T04:39:16.989Z,932.33
2017-01-31T04:39:44.845Z,932.22
2017-01-31T04:40:12.910Z,932.2
2017-01-31T04:40:40.981Z,932.23
2017-01-31T04:41:09.059Z,932.24
2017-01-31T04:41:37.076Z,932.21
2017-01-31T04:42:05.129Z,932.25
2017-01-31T04:42:33.199Z,932.2
2017-01-31T04:43:01.356Z,932.28
2017-01-31T04:43:29.562Z,932.2
2017-01-31T04:43:57.820Z,932.22
2017-01-31T04:44:25.961Z,932.24
2017-01-31T04:44:54.085Z,932.24
2017-01-31T04:45:22.062Z,932.28
2017-01-31T04:45:50.173Z,932.33
2017-01-31T04:46:18.297Z,932.31
2017-01-31T04:46:46.325Z,932.29
2017-01-31T04:47:14.416Z,932.28
2017-01-31T04:47:42.539Z,932.28
2017-01-31T04:48:10.653Z,932.26
2017-01-31T04:48:38.690Z,932.24
2017-01-31T04:49:06.885Z,932.25
2017-01-31T04:49:35.002Z,932.24
2017-01-31T04:50:03.122Z,932.23
2017-01-31T04:50:31.280Z,932.24
2017-01-31T04:50:59.290Z,932.25
2017-01-31T04:51:27.536Z,932.23
2017-01-31T04:51:55.675Z,932.24
2017-01-31T04:52:23.814Z,932.21
2017-01-31T04:52:51.858Z,932.26
2017-01-31T04:53:19.980Z,932.24
2017-01-31T04:53:48.258Z,932.25
2017-01-31T04:54:16.378Z,932.22
2017-01-31T04:54:44.508Z,932.21
2017-01-31T04:55:12.534Z,932.22
2017-01-31T04:55:40.564Z,932.21
2017-01-31T04:56:08.714Z,932.24
2017-01-31T04:56:36.859Z,932.22
2017-01-31T04:57:04.817Z,932.18
2017-01-31T04:57:32.842Z,932.2
2017-01-31T04:58:00.780Z,932.22
2017-01-31T04:58:29.027Z,932.15
2017-01-31T04:58:57.141Z,932.16
2017-01-31T04:59:25.329Z,932.14
2017-01-31T04:59:53.408Z,932.15
2017-01-31T05:00:21.651Z,932.13
2017-01-31T05:00:49.759Z,932.13
2017-01-31T05:01:17.942Z,932.14
2017-01-31T05:01:46.053Z,932.16
2017-01-31T05:02:13.958Z,932.18
2017-01-31T05:02:42.092Z,932.17
2017-01-31T05:03:10.214Z,932.13
2017-01-31T05:03:38.254Z,932.14
2017-01-31T05:04:06.505Z,932.12
2017-01-31T05:04:34.464Z,932.12
2017-01-31T05:05:02.522Z,932.15
2017-01-31T05:05:30.539Z,932.11
2017-01-31T05:05:58.456Z,932.1
2017-01-31T05:06:26.605Z,932.12
2017-01-31T05:06:54.532Z,932.09
2017-01-31T05:07:22.570Z,932.12
2017-01-31T05:07:50.608Z,932.1
2017-01-31T05:08:18.721Z,932.07
2017-01-31T05:08:46.839Z,932.07
2017-01-31T05:09:15.219Z,932.07
2017-01-31T05:09:43.223Z,932.1
2017-01-31T05:10:11.384Z,932.09
2017-01-31T05:10:39.518Z,932.09
2017-01-31T05:11:07.450Z,932.08
2017-01-31T05:11:35.492Z,932.07
2017-01-31T05:12:03.499Z,932.09
2017-01-31T05:12:31.675Z,932.07
2017-01-31T05:12:59.699Z,932.08
2017-01-31T05:13:27.623Z,932.07
2017-01-31T05:13:55.583Z,932.08
2017-01-31T05:14:23.750Z,932.04
2017-01-31T05:14:51.888Z,932.08
2017-01-31T05:15:19.961Z,932.09
2017-01-31T05:15:47.995Z,932.04
2017-01-31T05:16:16.044Z,932.05
2017-01-31T05:16:44.144Z,932.03
2017-01-31T05:17:12.315Z,932.03
2017-01-31T05:17:40.291Z,932.01
2017-01-31T05:18:08.245Z,932.03
2017-01-31T05:18:36.455Z,932.05
2017-01-31T05:19:04.854Z,932
2017-01-31T05:19:32.894Z,932
2017-01-31T05:20:00.921Z,931.99
2017-01-31T05:20:28.872Z,932.02
2017-01-31T05:20:56.937Z,932.05
2017-01-31T05:21:24.867Z,932.07
2017-01-31T05:21:52.975Z,932.07
2017-01-31T05:22:21.082Z,932.08
2017-01-31T05:22:49.021Z,932.08
2017-01-31T05:23:17.167Z,932.05
2017-01-31T05:23:45.335Z,932.02
2017-01-31T05:24:13.732Z,932.02
2017-01-31T05:24:41.812Z,932
2017-01-31T05:25:09.771Z,932.02
2017-01-31T05:25:37.794Z,932
2017-01-31T05:26:05.845Z,931.99
2017-01-31T05:26:33.978Z,931.97
2017-01-31T05:27:02.134Z,932.01
2017-01-31T05:27:30.237Z,932
2017-01-31T05:27:58.451Z,932
2017-01-31T05:28:26.621Z,932.03
2017-01-31T05:28:54.655Z,932.03
2017-01-31T05:29:23.071Z,932.03
2017-01-31T05:29:51.104Z,932.05
2017-01-31T05:30:19.206Z,932.09
2017-01-31T05:30:47.377Z,932.06
2017-01-31T05:31:15.526Z,932.04
2017-01-31T05:31:43.444Z,932.06
2017-01-31T05:32:11.548Z,932.07
2017-01-31T05:32:39.500Z,932.06
2017-01-31T05:33:07.591Z,932.09
2017-01-31T05:33:35.653Z,932.1
2017-01-31T05:34:03.839Z,932.12
2017-01-31T05:34:32.221Z,932.08
2017-01-31T05:35:00.298Z,932.1
2017-01-31T05:35:28.377Z,932.09
2017-01-31T05:35:56.617Z,932.1
2017-01-31T05:36:24.638Z,932.1
2017-01-31T05:36:52.772Z,932.09
2017-01-31T05:37:20.828Z,932.09
2017-01-31T05:37:48.843Z,932.09
2017-01-31T05:38:16.875Z,932.09
2017-01-31T05:38:45.090Z,932.09
2017-01-31T05:39:13.179Z,932.06
2017-01-31T05:39:41.558Z,932.07
2017-01-31T05:40:09.577Z,932.05
2017-01-31T05:40:37.671Z,932.07
2017-01-31T05:41:05.777Z,932.07
2017-01-31T05:41:33.876Z,932.09
2017-01-31T05:42:01.913Z,932.07
2017-01-31T05:42:30.020Z,932.05
2017-01-31T05:42:58.210Z,932.07
2017-01-31T05:43:26.288Z,932.04
2017-01-31T05:43:54.499Z,932.03
2017-01-31T05:44:22.903Z,932.04
2017-01-31T05:44:51.050Z,932
2017-01-31T05:45:19.123Z,932.05
2017-01-31T05:45:47.047Z,932.04
2017-01-31T05:46:15.174Z,932.07
2017-01-31T05:46:43.149Z,932.07
2017-01-31T05:47:11.146Z,932.04
2017-01-31T05:47:39.241Z,932.05
2017-01-31T05:48:07.453Z,932.1
2017-01-31T05:48:35.668Z,932.08
2017-01-31T05:49:03.776Z,932.1
2017-01-31T05:49:32.141Z,932.09
2017-01-31T05:50:00.226Z,932.11
2017-01-31T05:50:28.208Z,932.11
2017-01-31T05:50:56.325Z,932.13
2017-01-31T05:51:24.313Z,932.09
2017-01-31T05:51:52.447Z,932.09
2017-01-31T05:52:20.551Z,932.12
2017-01-31T05:52:48.790Z,932.09
2017-01-31T05:53:16.951Z,932.15
2017-01-31T05:53:45.107Z,932.13